sensor_id;sensor_type;location;lat;lon;timestamp;P1;durP1;ratioP1;P2;durP2;ratioP2
4676;SDS011;2352;48.180;11.478;2023-02-28T00:00:27;3.20;;;3.00;;
4676;SDS011;2352;48.180;11.478;2023-02-28T00:03:30;3.80;;;3.50;;
4676;SDS011;2352;48.180;11.478;2023-02-28T00:06:36;3.13;;;2.93;;
4676;SDS011;2352;48.180;11.478;2023-02-28T00:09:40;3.23;;;2.90;;
4676;SDS011;2352;48.180;11.478;2023-02-28T00:12:43;6.73;;;3.40;;
4676;SDS011;2352;48.180;11.478;2023-02-28T00:15:46;3.00;;;2.80;;
4676;SDS011;2352;48.180;11.478;2023-02-28T00:18:49;3.73;;;3.40;;
4676;SDS011;2352;48.180;11.478;2023-02-28T00:21:52;3.67;;;3.47;;
4676;SDS011;2352;48.180;11.478;2023-02-28T00:24:56;3.10;;;2.90;;
4676;SDS011;2352;48.180;11.478;2023-02-28T00:27:59;3.47;;;3.20;;
4676;SDS011;2352;48.180;11.478;2023-02-28T00:31:02;3.10;;;2.90;;
4676;SDS011;2352;48.180;11.478;2023-02-28T00:34:06;4.23;;;3.83;;
4676;SDS011;2352;48.180;11.478;2023-02-28T00:37:09;3.17;;;2.87;;
4676;SDS011;2352;48.180;11.478;2023-02-28T00:40:15;3.50;;;3.20;;
4676;SDS011;2352;48.180;11.478;2023-02-28T00:43:18;4.60;;;3.63;;
4676;SDS011;2352;48.180;11.478;2023-02-28T00:46:21;4.63;;;3.27;;
4676;SDS011;2352;48.180;11.478;2023-02-28T00:49:24;4.40;;;4.00;;
4676;SDS011;2352;48.180;11.478;2023-02-28T00:52:27;3.27;;;2.97;;
4676;SDS011;2352;48.180;11.478;2023-02-28T00:55:32;3.93;;;3.63;;
4676;SDS011;2352;48.180;11.478;2023-02-28T00:58:34;4.00;;;3.70;;
4676;SDS011;2352;48.180;11.478;2023-02-28T01:01:37;3.93;;;2.97;;
4676;SDS011;2352;48.180;11.478;2023-02-28T01:04:40;3.77;;;3.47;;
4676;SDS011;2352;48.180;11.478;2023-02-28T01:07:43;4.50;;;4.13;;
4676;SDS011;2352;48.180;11.478;2023-02-28T01:10:48;4.23;;;3.87;;
4676;SDS011;2352;48.180;11.478;2023-02-28T01:13:51;4.30;;;3.90;;
4676;SDS011;2352;48.180;11.478;2023-02-28T01:16:54;5.23;;;4.47;;
4676;SDS011;2352;48.180;11.478;2023-02-28T01:19:56;4.03;;;3.73;;
4676;SDS011;2352;48.180;11.478;2023-02-28T01:22:59;4.17;;;3.87;;
4676;SDS011;2352;48.180;11.478;2023-02-28T01:26:08;4.23;;;3.83;;
4676;SDS011;2352;48.180;11.478;2023-02-28T01:29:12;4.03;;;3.73;;
4676;SDS011;2352;48.180;11.478;2023-02-28T01:32:15;5.07;;;4.57;;
4676;SDS011;2352;48.180;11.478;2023-02-28T01:35:18;4.57;;;4.23;;
4676;SDS011;2352;48.180;11.478;2023-02-28T01:38:21;4.57;;;4.17;;
4676;SDS011;2352;48.180;11.478;2023-02-28T01:41:26;4.03;;;3.73;;
4676;SDS011;2352;48.180;11.478;2023-02-28T01:48:02;4.33;;;3.93;;
4676;SDS011;2352;48.180;11.478;2023-02-28T01:51:08;5.00;;;4.50;;
4676;SDS011;2352;48.180;11.478;2023-02-28T01:54:16;4.80;;;4.40;;
4676;SDS011;2352;48.180;11.478;2023-02-28T01:57:25;5.07;;;4.73;;
4676;SDS011;2352;48.180;11.478;2023-02-28T02:00:34;4.23;;;3.90;;
4676;SDS011;2352;48.180;11.478;2023-02-28T02:03:37;4.03;;;3.70;;
4676;SDS011;2352;48.180;11.478;2023-02-28T02:06:42;4.07;;;3.67;;
4676;SDS011;2352;48.180;11.478;2023-02-28T02:09:46;4.17;;;3.87;;
4676;SDS011;2352;48.180;11.478;2023-02-28T02:16:25;4.80;;;4.50;;
4676;SDS011;2352;48.180;11.478;2023-02-28T02:23:51;4.63;;;4.23;;
4676;SDS011;2352;48.180;11.478;2023-02-28T02:27:20;4.53;;;4.23;;
4676;SDS011;2352;48.180;11.478;2023-02-28T02:30:36;4.53;;;4.17;;
4676;SDS011;2352;48.180;11.478;2023-02-28T02:34:15;4.23;;;3.73;;
4676;SDS011;2352;48.180;11.478;2023-02-28T02:37:33;4.50;;;4.20;;
4676;SDS011;2352;48.180;11.478;2023-02-28T02:40:42;3.87;;;3.60;;
4676;SDS011;2352;48.180;11.478;2023-02-28T02:43:49;5.20;;;4.43;;
4676;SDS011;2352;48.180;11.478;2023-02-28T02:46:58;4.93;;;4.53;;
4676;SDS011;2352;48.180;11.478;2023-02-28T02:50:08;5.80;;;5.30;;
4676;SDS011;2352;48.180;11.478;2023-02-28T02:53:15;4.73;;;4.33;;
4676;SDS011;2352;48.180;11.478;2023-02-28T02:56:23;5.27;;;4.87;;
4676;SDS011;2352;48.180;11.478;2023-02-28T02:59:29;5.40;;;4.97;;
4676;SDS011;2352;48.180;11.478;2023-02-28T03:02:33;5.07;;;4.67;;
4676;SDS011;2352;48.180;11.478;2023-02-28T03:05:41;6.20;;;4.57;;
4676;SDS011;2352;48.180;11.478;2023-02-28T03:08:47;4.63;;;4.23;;
4676;SDS011;2352;48.180;11.478;2023-02-28T03:11:50;4.80;;;4.30;;
4676;SDS011;2352;48.180;11.478;2023-02-28T03:14:55;4.93;;;4.40;;
4676;SDS011;2352;48.180;11.478;2023-02-28T03:18:08;5.50;;;5.00;;
4676;SDS011;2352;48.180;11.478;2023-02-28T03:21:20;4.80;;;4.50;;
4676;SDS011;2352;48.180;11.478;2023-02-28T03:24:31;4.77;;;4.47;;
4676;SDS011;2352;48.180;11.478;2023-02-28T03:27:39;5.43;;;5.03;;
4676;SDS011;2352;48.180;11.478;2023-02-28T03:30:48;5.93;;;5.30;;
4676;SDS011;2352;48.180;11.478;2023-02-28T03:33:55;5.43;;;5.03;;
4676;SDS011;2352;48.180;11.478;2023-02-28T03:37:07;5.30;;;4.90;;
4676;SDS011;2352;48.180;11.478;2023-02-28T03:40:14;6.37;;;5.87;;
4676;SDS011;2352;48.180;11.478;2023-02-28T03:43:22;5.23;;;4.73;;
4676;SDS011;2352;48.180;11.478;2023-02-28T03:46:31;4.93;;;4.63;;
4676;SDS011;2352;48.180;11.478;2023-02-28T03:49:38;5.50;;;5.07;;
4676;SDS011;2352;48.180;11.478;2023-02-28T03:52:46;6.27;;;5.77;;
4676;SDS011;2352;48.180;11.478;2023-02-28T03:55:53;5.90;;;5.40;;
4676;SDS011;2352;48.180;11.478;2023-02-28T03:59:00;6.80;;;6.27;;
4676;SDS011;2352;48.180;11.478;2023-02-28T04:02:08;6.03;;;5.63;;
4676;SDS011;2352;48.180;11.478;2023-02-28T04:05:11;6.53;;;5.97;;
4676;SDS011;2352;48.180;11.478;2023-02-28T04:08:15;6.90;;;6.30;;
4676;SDS011;2352;48.180;11.478;2023-02-28T04:11:20;6.63;;;6.13;;
4676;SDS011;2352;48.180;11.478;2023-02-28T04:14:25;6.47;;;5.97;;
4676;SDS011;2352;48.180;11.478;2023-02-28T04:17:28;6.87;;;6.37;;
4676;SDS011;2352;48.180;11.478;2023-02-28T04:20:30;6.43;;;5.93;;
4676;SDS011;2352;48.180;11.478;2023-02-28T04:23:35;6.00;;;5.50;;
4676;SDS011;2352;48.180;11.478;2023-02-28T04:26:38;6.97;;;6.37;;
4676;SDS011;2352;48.180;11.478;2023-02-28T04:29:40;6.93;;;6.40;;
4676;SDS011;2352;48.180;11.478;2023-02-28T04:32:46;6.90;;;6.33;;
4676;SDS011;2352;48.180;11.478;2023-02-28T04:35:57;7.37;;;6.77;;
4676;SDS011;2352;48.180;11.478;2023-02-28T04:39:02;7.00;;;6.50;;
4676;SDS011;2352;48.180;11.478;2023-02-28T04:42:05;7.10;;;6.50;;
4676;SDS011;2352;48.180;11.478;2023-02-28T04:45:08;8.30;;;7.60;;
4676;SDS011;2352;48.180;11.478;2023-02-28T04:48:12;6.83;;;6.23;;
4676;SDS011;2352;48.180;11.478;2023-02-28T04:51:16;6.87;;;6.30;;
4676;SDS011;2352;48.180;11.478;2023-02-28T04:54:22;7.30;;;6.80;;
4676;SDS011;2352;48.180;11.478;2023-02-28T04:57:25;6.83;;;6.33;;
4676;SDS011;2352;48.180;11.478;2023-02-28T05:00:28;7.33;;;6.73;;
4676;SDS011;2352;48.180;11.478;2023-02-28T05:03:31;8.87;;;7.77;;
4676;SDS011;2352;48.180;11.478;2023-02-28T05:06:34;7.73;;;7.13;;
4676;SDS011;2352;48.180;11.478;2023-02-28T05:09:38;9.07;;;8.37;;
4676;SDS011;2352;48.180;11.478;2023-02-28T05:12:41;7.30;;;6.80;;
4676;SDS011;2352;48.180;11.478;2023-02-28T05:15:44;8.10;;;7.43;;
4676;SDS011;2352;48.180;11.478;2023-02-28T05:18:47;8.90;;;8.13;;
4676;SDS011;2352;48.180;11.478;2023-02-28T05:21:51;8.63;;;7.93;;
4676;SDS011;2352;48.180;11.478;2023-02-28T05:24:55;7.90;;;7.33;;
4676;SDS011;2352;48.180;11.478;2023-02-28T05:27:58;8.23;;;7.53;;
4676;SDS011;2352;48.180;11.478;2023-02-28T05:31:01;8.77;;;8.17;;
4676;SDS011;2352;48.180;11.478;2023-02-28T05:34:04;8.83;;;8.13;;
4676;SDS011;2352;48.180;11.478;2023-02-28T05:37:08;8.87;;;8.17;;
4676;SDS011;2352;48.180;11.478;2023-02-28T05:40:15;9.37;;;8.67;;
4676;SDS011;2352;48.180;11.478;2023-02-28T05:43:20;9.03;;;8.33;;
4676;SDS011;2352;48.180;11.478;2023-02-28T05:46:23;9.57;;;8.87;;
4676;SDS011;2352;48.180;11.478;2023-02-28T05:49:26;10.63;;;9.53;;
4676;SDS011;2352;48.180;11.478;2023-02-28T05:52:29;9.33;;;8.43;;
4676;SDS011;2352;48.180;11.478;2023-02-28T05:55:33;9.63;;;8.83;;
4676;SDS011;2352;48.180;11.478;2023-02-28T05:58:38;10.17;;;9.07;;
4676;SDS011;2352;48.180;11.478;2023-02-28T06:01:42;10.13;;;9.43;;
4676;SDS011;2352;48.180;11.478;2023-02-28T06:04:49;10.53;;;9.63;;
4676;SDS011;2352;48.180;11.478;2023-02-28T06:07:52;9.90;;;9.00;;
4676;SDS011;2352;48.180;11.478;2023-02-28T06:10:56;10.37;;;9.53;;
4676;SDS011;2352;48.180;11.478;2023-02-28T06:13:59;10.60;;;9.73;;
4676;SDS011;2352;48.180;11.478;2023-02-28T06:17:03;10.57;;;9.47;;
4676;SDS011;2352;48.180;11.478;2023-02-28T06:20:07;10.23;;;9.43;;
4676;SDS011;2352;48.180;11.478;2023-02-28T06:23:10;11.03;;;10.13;;
4676;SDS011;2352;48.180;11.478;2023-02-28T06:26:14;10.30;;;9.43;;
4676;SDS011;2352;48.180;11.478;2023-02-28T06:29:17;10.60;;;9.73;;
4676;SDS011;2352;48.180;11.478;2023-02-28T06:32:21;10.87;;;9.97;;
4676;SDS011;2352;48.180;11.478;2023-02-28T06:35:24;10.33;;;9.43;;
4676;SDS011;2352;48.180;11.478;2023-02-28T06:38:28;11.00;;;10.00;;
4676;SDS011;2352;48.180;11.478;2023-02-28T06:41:32;13.30;;;12.07;;
4676;SDS011;2352;48.180;11.478;2023-02-28T06:44:54;12.13;;;11.13;;
4676;SDS011;2352;48.180;11.478;2023-02-28T06:47:57;10.73;;;9.93;;
4676;SDS011;2352;48.180;11.478;2023-02-28T06:51:01;12.40;;;11.30;;
4676;SDS011;2352;48.180;11.478;2023-02-28T06:54:05;11.50;;;10.67;;
4676;SDS011;2352;48.180;11.478;2023-02-28T06:57:12;11.53;;;10.43;;
4676;SDS011;2352;48.180;11.478;2023-02-28T07:00:15;11.27;;;10.20;;
4676;SDS011;2352;48.180;11.478;2023-02-28T07:03:18;13.00;;;9.97;;
4676;SDS011;2352;48.180;11.478;2023-02-28T07:06:22;12.20;;;11.17;;
4676;SDS011;2352;48.180;11.478;2023-02-28T07:09:25;11.87;;;10.90;;
4676;SDS011;2352;48.180;11.478;2023-02-28T07:12:32;12.57;;;11.43;;
4676;SDS011;2352;48.180;11.478;2023-02-28T07:15:35;12.47;;;11.53;;
4676;SDS011;2352;48.180;11.478;2023-02-28T07:18:42;12.47;;;11.40;;
4676;SDS011;2352;48.180;11.478;2023-02-28T07:21:45;15.20;;;12.77;;
4676;SDS011;2352;48.180;11.478;2023-02-28T07:24:48;14.70;;;13.20;;
4676;SDS011;2352;48.180;11.478;2023-02-28T07:27:52;13.77;;;12.43;;
4676;SDS011;2352;48.180;11.478;2023-02-28T07:30:55;13.57;;;12.53;;
4676;SDS011;2352;48.180;11.478;2023-02-28T07:33:58;14.20;;;13.00;;
4676;SDS011;2352;48.180;11.478;2023-02-28T07:37:01;14.47;;;13.00;;
4676;SDS011;2352;48.180;11.478;2023-02-28T07:40:06;15.53;;;13.80;;
4676;SDS011;2352;48.180;11.478;2023-02-28T07:43:13;14.50;;;13.13;;
4676;SDS011;2352;48.180;11.478;2023-02-28T07:46:16;16.00;;;13.87;;
4676;SDS011;2352;48.180;11.478;2023-02-28T07:49:21;14.47;;;13.07;;
4676;SDS011;2352;48.180;11.478;2023-02-28T07:52:24;14.53;;;13.20;;
4676;SDS011;2352;48.180;11.478;2023-02-28T07:55:27;15.20;;;13.87;;
4676;SDS011;2352;48.180;11.478;2023-02-28T07:58:32;15.93;;;14.23;;
4676;SDS011;2352;48.180;11.478;2023-02-28T08:01:34;15.00;;;13.70;;
4676;SDS011;2352;48.180;11.478;2023-02-28T08:04:37;15.43;;;14.03;;
4676;SDS011;2352;48.180;11.478;2023-02-28T08:07:40;16.43;;;13.97;;
4676;SDS011;2352;48.180;11.478;2023-02-28T08:10:43;15.07;;;13.77;;
4676;SDS011;2352;48.180;11.478;2023-02-28T08:13:47;18.37;;;15.00;;
4676;SDS011;2352;48.180;11.478;2023-02-28T08:16:50;15.37;;;14.03;;
4676;SDS011;2352;48.180;11.478;2023-02-28T08:19:53;15.73;;;14.23;;
4676;SDS011;2352;48.180;11.478;2023-02-28T08:22:56;14.83;;;13.60;;
4676;SDS011;2352;48.180;11.478;2023-02-28T08:25:59;14.90;;;13.57;;
4676;SDS011;2352;48.180;11.478;2023-02-28T08:29:03;15.50;;;13.93;;
4676;SDS011;2352;48.180;11.478;2023-02-28T08:32:06;14.53;;;13.23;;
4676;SDS011;2352;48.180;11.478;2023-02-28T08:35:28;17.90;;;14.80;;
4676;SDS011;2352;48.180;11.478;2023-02-28T08:38:31;16.27;;;14.57;;
4676;SDS011;2352;48.180;11.478;2023-02-28T08:41:34;15.70;;;14.20;;
4676;SDS011;2352;48.180;11.478;2023-02-28T08:44:39;15.50;;;13.90;;
4676;SDS011;2352;48.180;11.478;2023-02-28T08:47:42;14.57;;;13.17;;
4676;SDS011;2352;48.180;11.478;2023-02-28T08:50:54;15.70;;;14.20;;
4676;SDS011;2352;48.180;11.478;2023-02-28T08:54:07;16.40;;;14.77;;
4676;SDS011;2352;48.180;11.478;2023-02-28T08:57:13;16.67;;;15.00;;
4676;SDS011;2352;48.180;11.478;2023-02-28T09:00:18;15.27;;;13.87;;
4676;SDS011;2352;48.180;11.478;2023-02-28T09:03:22;15.27;;;13.77;;
4676;SDS011;2352;48.180;11.478;2023-02-28T09:06:26;16.77;;;15.03;;
4676;SDS011;2352;48.180;11.478;2023-02-28T09:09:30;14.57;;;13.37;;
4676;SDS011;2352;48.180;11.478;2023-02-28T09:12:33;14.97;;;13.63;;
4676;SDS011;2352;48.180;11.478;2023-02-28T09:15:38;16.23;;;14.53;;
4676;SDS011;2352;48.180;11.478;2023-02-28T09:18:41;16.20;;;14.70;;
4676;SDS011;2352;48.180;11.478;2023-02-28T09:21:45;15.33;;;13.90;;
4676;SDS011;2352;48.180;11.478;2023-02-28T09:24:48;16.77;;;14.63;;
4676;SDS011;2352;48.180;11.478;2023-02-28T09:27:51;15.47;;;14.13;;
4676;SDS011;2352;48.180;11.478;2023-02-28T09:30:55;14.30;;;12.90;;
4676;SDS011;2352;48.180;11.478;2023-02-28T09:34:00;16.10;;;14.60;;
4676;SDS011;2352;48.180;11.478;2023-02-28T09:37:03;15.50;;;14.00;;
4676;SDS011;2352;48.180;11.478;2023-02-28T09:40:07;15.13;;;13.63;;
4676;SDS011;2352;48.180;11.478;2023-02-28T09:43:12;16.67;;;13.70;;
4676;SDS011;2352;48.180;11.478;2023-02-28T09:46:25;15.73;;;13.50;;
4676;SDS011;2352;48.180;11.478;2023-02-28T09:49:37;15.30;;;14.00;;
4676;SDS011;2352;48.180;11.478;2023-02-28T09:52:43;16.73;;;14.87;;
4676;SDS011;2352;48.180;11.478;2023-02-28T09:55:50;16.10;;;14.47;;
4676;SDS011;2352;48.180;11.478;2023-02-28T09:58:56;16.03;;;14.37;;
4676;SDS011;2352;48.180;11.478;2023-02-28T10:02:08;14.37;;;13.10;;
4676;SDS011;2352;48.180;11.478;2023-02-28T10:05:22;14.47;;;13.13;;
4676;SDS011;2352;48.180;11.478;2023-02-28T10:08:29;14.17;;;12.80;;
4676;SDS011;2352;48.180;11.478;2023-02-28T10:11:35;13.77;;;12.43;;
4676;SDS011;2352;48.180;11.478;2023-02-28T10:14:42;14.10;;;12.90;;
4676;SDS011;2352;48.180;11.478;2023-02-28T10:17:51;14.77;;;13.47;;
4676;SDS011;2352;48.180;11.478;2023-02-28T10:21:13;17.90;;;14.00;;
4676;SDS011;2352;48.180;11.478;2023-02-28T10:24:23;13.83;;;12.43;;
4676;SDS011;2352;48.180;11.478;2023-02-28T10:27:31;15.40;;;14.07;;
4676;SDS011;2352;48.180;11.478;2023-02-28T10:30:35;14.30;;;12.87;;
4676;SDS011;2352;48.180;11.478;2023-02-28T10:33:43;13.13;;;11.83;;
4676;SDS011;2352;48.180;11.478;2023-02-28T10:36:46;13.93;;;12.67;;
4676;SDS011;2352;48.180;11.478;2023-02-28T10:39:51;14.67;;;13.37;;
4676;SDS011;2352;48.180;11.478;2023-02-28T10:42:55;15.50;;;12.73;;
4676;SDS011;2352;48.180;11.478;2023-02-28T10:45:59;13.40;;;12.10;;
4676;SDS011;2352;48.180;11.478;2023-02-28T10:49:12;13.23;;;12.00;;
4676;SDS011;2352;48.180;11.478;2023-02-28T10:52:32;14.50;;;13.13;;
4676;SDS011;2352;48.180;11.478;2023-02-28T10:55:39;14.23;;;12.83;;
4676;SDS011;2352;48.180;11.478;2023-02-28T10:58:45;17.50;;;13.43;;
4676;SDS011;2352;48.180;11.478;2023-02-28T11:01:51;14.23;;;12.83;;
4676;SDS011;2352;48.180;11.478;2023-02-28T11:04:56;15.73;;;14.07;;
4676;SDS011;2352;48.180;11.478;2023-02-28T11:08:02;14.03;;;12.90;;
4676;SDS011;2352;48.180;11.478;2023-02-28T11:11:09;14.97;;;13.37;;
4676;SDS011;2352;48.180;11.478;2023-02-28T11:14:16;13.17;;;11.87;;
4676;SDS011;2352;48.180;11.478;2023-02-28T11:17:23;12.80;;;11.80;;
4676;SDS011;2352;48.180;11.478;2023-02-28T11:20:29;13.63;;;12.30;;
4676;SDS011;2352;48.180;11.478;2023-02-28T11:23:35;13.50;;;12.10;;
4676;SDS011;2352;48.180;11.478;2023-02-28T11:26:43;12.83;;;11.57;;
4676;SDS011;2352;48.180;11.478;2023-02-28T11:29:47;18.03;;;12.57;;
4676;SDS011;2352;48.180;11.478;2023-02-28T11:32:50;12.40;;;11.40;;
4676;SDS011;2352;48.180;11.478;2023-02-28T11:35:55;13.10;;;11.87;;
4676;SDS011;2352;48.180;11.478;2023-02-28T11:39:07;14.60;;;11.63;;
4676;SDS011;2352;48.180;11.478;2023-02-28T11:42:19;13.07;;;11.97;;
4676;SDS011;2352;48.180;11.478;2023-02-28T11:45:44;13.53;;;12.23;;
4676;SDS011;2352;48.180;11.478;2023-02-28T11:48:58;13.10;;;11.63;;
4676;SDS011;2352;48.180;11.478;2023-02-28T11:52:13;13.90;;;12.60;;
4676;SDS011;2352;48.180;11.478;2023-02-28T11:55:24;13.93;;;12.80;;
4676;SDS011;2352;48.180;11.478;2023-02-28T11:58:32;13.90;;;12.70;;
4676;SDS011;2352;48.180;11.478;2023-02-28T12:01:47;12.80;;;11.87;;
4676;SDS011;2352;48.180;11.478;2023-02-28T12:05:18;13.97;;;12.70;;
4676;SDS011;2352;48.180;11.478;2023-02-28T12:08:33;12.60;;;11.43;;
4676;SDS011;2352;48.180;11.478;2023-02-28T12:11:48;13.07;;;11.97;;
4676;SDS011;2352;48.180;11.478;2023-02-28T12:15:16;12.67;;;11.57;;
4676;SDS011;2352;48.180;11.478;2023-02-28T12:18:40;13.63;;;12.33;;
4676;SDS011;2352;48.180;11.478;2023-02-28T12:25:32;13.40;;;12.20;;
4676;SDS011;2352;48.180;11.478;2023-02-28T12:28:47;12.43;;;11.43;;
4676;SDS011;2352;48.180;11.478;2023-02-28T12:31:54;12.23;;;11.33;;
4676;SDS011;2352;48.180;11.478;2023-02-28T12:35:06;12.47;;;11.33;;
4676;SDS011;2352;48.180;11.478;2023-02-28T12:38:16;12.37;;;11.27;;
4676;SDS011;2352;48.180;11.478;2023-02-28T12:41:25;11.93;;;10.73;;
4676;SDS011;2352;48.180;11.478;2023-02-28T12:44:32;11.03;;;10.13;;
4676;SDS011;2352;48.180;11.478;2023-02-28T12:47:42;11.20;;;10.27;;
4676;SDS011;2352;48.180;11.478;2023-02-28T12:50:47;12.57;;;11.37;;
4676;SDS011;2352;48.180;11.478;2023-02-28T12:53:54;11.13;;;10.23;;
4676;SDS011;2352;48.180;11.478;2023-02-28T12:57:08;11.63;;;10.53;;
4676;SDS011;2352;48.180;11.478;2023-02-28T13:00:16;13.20;;;10.87;;
4676;SDS011;2352;48.180;11.478;2023-02-28T13:03:26;11.97;;;10.43;;
4676;SDS011;2352;48.180;11.478;2023-02-28T13:06:42;12.43;;;11.43;;
4676;SDS011;2352;48.180;11.478;2023-02-28T13:09:56;10.60;;;9.70;;
4676;SDS011;2352;48.180;11.478;2023-02-28T13:13:02;9.97;;;9.17;;
4676;SDS011;2352;48.180;11.478;2023-02-28T13:16:06;10.40;;;9.50;;
4676;SDS011;2352;48.180;11.478;2023-02-28T13:19:11;9.63;;;8.70;;
4676;SDS011;2352;48.180;11.478;2023-02-28T13:22:19;10.00;;;9.10;;
4676;SDS011;2352;48.180;11.478;2023-02-28T13:28:59;10.27;;;9.40;;
4676;SDS011;2352;48.180;11.478;2023-02-28T13:35:42;9.67;;;8.87;;
4676;SDS011;2352;48.180;11.478;2023-02-28T13:38:49;10.50;;;9.80;;
4676;SDS011;2352;48.180;11.478;2023-02-28T13:41:54;9.67;;;8.87;;
4676;SDS011;2352;48.180;11.478;2023-02-28T13:48:31;10.43;;;9.63;;
4676;SDS011;2352;48.180;11.478;2023-02-28T13:51:41;10.93;;;9.93;;
4676;SDS011;2352;48.180;11.478;2023-02-28T13:54:51;11.60;;;10.57;;
4676;SDS011;2352;48.180;11.478;2023-02-28T13:58:22;12.10;;;10.87;;
4676;SDS011;2352;48.180;11.478;2023-02-28T14:01:43;10.53;;;9.57;;
4676;SDS011;2352;48.180;11.478;2023-02-28T14:04:58;11.20;;;9.63;;
4676;SDS011;2352;48.180;11.478;2023-02-28T14:08:04;10.63;;;9.50;;
4676;SDS011;2352;48.180;11.478;2023-02-28T14:11:23;10.57;;;9.53;;
4676;SDS011;2352;48.180;11.478;2023-02-28T14:17:59;11.07;;;10.03;;
4676;SDS011;2352;48.180;11.478;2023-02-28T14:21:10;19.53;;;9.73;;
4676;SDS011;2352;48.180;11.478;2023-02-28T14:27:54;10.37;;;8.77;;
4676;SDS011;2352;48.180;11.478;2023-02-28T14:31:06;9.83;;;8.93;;
4676;SDS011;2352;48.180;11.478;2023-02-28T14:34:17;10.60;;;9.70;;
4676;SDS011;2352;48.180;11.478;2023-02-28T14:37:28;10.77;;;9.83;;
4676;SDS011;2352;48.180;11.478;2023-02-28T14:40:35;9.90;;;8.67;;
4676;SDS011;2352;48.180;11.478;2023-02-28T14:43:47;10.23;;;9.40;;
4676;SDS011;2352;48.180;11.478;2023-02-28T14:46:52;10.77;;;9.97;;
4676;SDS011;2352;48.180;11.478;2023-02-28T14:49:59;10.17;;;9.37;;
4676;SDS011;2352;48.180;11.478;2023-02-28T14:53:04;10.90;;;10.00;;
4676;SDS011;2352;48.180;11.478;2023-02-28T14:56:19;10.33;;;9.53;;
4676;SDS011;2352;48.180;11.478;2023-02-28T14:59:27;10.00;;;9.10;;
4676;SDS011;2352;48.180;11.478;2023-02-28T15:02:33;10.33;;;9.17;;
4676;SDS011;2352;48.180;11.478;2023-02-28T15:05:38;10.23;;;9.23;;
4676;SDS011;2352;48.180;11.478;2023-02-28T15:08:41;13.43;;;9.60;;
4676;SDS011;2352;48.180;11.478;2023-02-28T15:11:45;8.87;;;8.07;;
4676;SDS011;2352;48.180;11.478;2023-02-28T15:14:50;9.77;;;8.97;;
4676;SDS011;2352;48.180;11.478;2023-02-28T15:17:54;9.50;;;8.70;;
4676;SDS011;2352;48.180;11.478;2023-02-28T15:21:02;10.23;;;9.33;;
4676;SDS011;2352;48.180;11.478;2023-02-28T15:24:10;10.73;;;9.63;;
4676;SDS011;2352;48.180;11.478;2023-02-28T15:27:25;10.27;;;9.47;;
4676;SDS011;2352;48.180;11.478;2023-02-28T15:30:30;9.23;;;8.57;;
4676;SDS011;2352;48.180;11.478;2023-02-28T15:33:34;9.97;;;8.97;;
4676;SDS011;2352;48.180;11.478;2023-02-28T15:36:38;9.73;;;8.93;;
4676;SDS011;2352;48.180;11.478;2023-02-28T15:39:41;10.87;;;9.87;;
4676;SDS011;2352;48.180;11.478;2023-02-28T15:42:57;11.00;;;9.90;;
4676;SDS011;2352;48.180;11.478;2023-02-28T15:46:02;10.17;;;9.43;;
4676;SDS011;2352;48.180;11.478;2023-02-28T15:49:12;10.40;;;9.60;;
4676;SDS011;2352;48.180;11.478;2023-02-28T15:52:21;11.80;;;10.23;;
4676;SDS011;2352;48.180;11.478;2023-02-28T15:55:28;10.77;;;9.87;;
4676;SDS011;2352;48.180;11.478;2023-02-28T15:58:32;10.87;;;9.97;;
4676;SDS011;2352;48.180;11.478;2023-02-28T16:01:37;9.93;;;9.00;;
4676;SDS011;2352;48.180;11.478;2023-02-28T16:05:00;10.67;;;9.77;;
4676;SDS011;2352;48.180;11.478;2023-02-28T16:08:30;10.50;;;9.73;;
4676;SDS011;2352;48.180;11.478;2023-02-28T16:11:33;10.33;;;9.47;;
4676;SDS011;2352;48.180;11.478;2023-02-28T16:14:39;14.17;;;11.93;;
4676;SDS011;2352;48.180;11.478;2023-02-28T16:17:43;12.77;;;11.57;;
4676;SDS011;2352;48.180;11.478;2023-02-28T16:20:47;11.70;;;10.60;;
4676;SDS011;2352;48.180;11.478;2023-02-28T16:23:51;11.50;;;10.60;;
4676;SDS011;2352;48.180;11.478;2023-02-28T16:26:55;13.03;;;10.87;;
4676;SDS011;2352;48.180;11.478;2023-02-28T16:29:59;11.63;;;10.63;;
4676;SDS011;2352;48.180;11.478;2023-02-28T16:33:03;11.63;;;10.63;;
4676;SDS011;2352;48.180;11.478;2023-02-28T16:36:06;11.03;;;10.13;;
4676;SDS011;2352;48.180;11.478;2023-02-28T16:39:13;10.97;;;9.97;;
4676;SDS011;2352;48.180;11.478;2023-02-28T16:42:16;12.70;;;11.47;;
4676;SDS011;2352;48.180;11.478;2023-02-28T16:45:27;12.43;;;11.13;;
4676;SDS011;2352;48.180;11.478;2023-02-28T16:48:30;14.27;;;12.53;;
4676;SDS011;2352;48.180;11.478;2023-02-28T16:51:33;14.00;;;12.73;;
4676;SDS011;2352;48.180;11.478;2023-02-28T16:54:38;15.90;;;12.97;;
4676;SDS011;2352;48.180;11.478;2023-02-28T16:57:42;13.43;;;12.03;;
4676;SDS011;2352;48.180;11.478;2023-02-28T17:00:46;13.20;;;12.07;;
4676;SDS011;2352;48.180;11.478;2023-02-28T17:03:50;14.00;;;12.73;;
4676;SDS011;2352;48.180;11.478;2023-02-28T17:06:53;13.53;;;12.47;;
4676;SDS011;2352;48.180;11.478;2023-02-28T17:09:57;15.10;;;13.37;;
4676;SDS011;2352;48.180;11.478;2023-02-28T17:13:01;14.90;;;13.00;;
4676;SDS011;2352;48.180;11.478;2023-02-28T17:16:17;15.53;;;13.97;;
4676;SDS011;2352;48.180;11.478;2023-02-28T17:19:24;15.57;;;12.77;;
4676;SDS011;2352;48.180;11.478;2023-02-28T17:22:27;18.50;;;13.37;;
4676;SDS011;2352;48.180;11.478;2023-02-28T17:25:31;16.03;;;13.20;;
4676;SDS011;2352;48.180;11.478;2023-02-28T17:28:34;16.37;;;13.47;;
4676;SDS011;2352;48.180;11.478;2023-02-28T17:31:37;13.30;;;12.10;;
4676;SDS011;2352;48.180;11.478;2023-02-28T17:34:43;14.97;;;12.93;;
4676;SDS011;2352;48.180;11.478;2023-02-28T17:37:47;14.33;;;12.90;;
4676;SDS011;2352;48.180;11.478;2023-02-28T17:40:52;22.37;;;16.50;;
4676;SDS011;2352;48.180;11.478;2023-02-28T17:43:58;19.07;;;15.83;;
4676;SDS011;2352;48.180;11.478;2023-02-28T17:47:01;16.63;;;15.10;;
4676;SDS011;2352;48.180;11.478;2023-02-28T17:50:04;21.67;;;15.50;;
4676;SDS011;2352;48.180;11.478;2023-02-28T17:53:07;15.83;;;14.43;;
4676;SDS011;2352;48.180;11.478;2023-02-28T17:56:18;19.10;;;13.87;;
4676;SDS011;2352;48.180;11.478;2023-02-28T17:59:22;14.97;;;13.67;;
4676;SDS011;2352;48.180;11.478;2023-02-28T18:02:25;15.47;;;13.80;;
4676;SDS011;2352;48.180;11.478;2023-02-28T18:05:28;13.83;;;12.53;;
4676;SDS011;2352;48.180;11.478;2023-02-28T18:08:32;20.83;;;15.37;;
4676;SDS011;2352;48.180;11.478;2023-02-28T18:11:38;16.40;;;14.70;;
4676;SDS011;2352;48.180;11.478;2023-02-28T18:14:44;15.93;;;14.43;;
4676;SDS011;2352;48.180;11.478;2023-02-28T18:17:49;18.00;;;13.63;;
4676;SDS011;2352;48.180;11.478;2023-02-28T18:20:52;17.30;;;14.23;;
4676;SDS011;2352;48.180;11.478;2023-02-28T18:23:56;14.93;;;13.43;;
4676;SDS011;2352;48.180;11.478;2023-02-28T18:27:00;15.00;;;12.90;;
4676;SDS011;2352;48.180;11.478;2023-02-28T18:30:03;13.67;;;12.33;;
4676;SDS011;2352;48.180;11.478;2023-02-28T18:33:07;14.80;;;13.20;;
4676;SDS011;2352;48.180;11.478;2023-02-28T18:36:09;16.03;;;13.37;;
4676;SDS011;2352;48.180;11.478;2023-02-28T18:39:13;15.57;;;13.90;;
4676;SDS011;2352;48.180;11.478;2023-02-28T18:42:17;14.27;;;12.97;;
4676;SDS011;2352;48.180;11.478;2023-02-28T18:45:20;14.73;;;13.30;;
4676;SDS011;2352;48.180;11.478;2023-02-28T18:48:23;17.27;;;12.67;;
4676;SDS011;2352;48.180;11.478;2023-02-28T18:51:26;13.03;;;12.00;;
4676;SDS011;2352;48.180;11.478;2023-02-28T18:54:30;16.33;;;14.83;;
4676;SDS011;2352;48.180;11.478;2023-02-28T18:57:35;15.53;;;13.97;;
4676;SDS011;2352;48.180;11.478;2023-02-28T19:00:37;15.20;;;13.80;;
4676;SDS011;2352;48.180;11.478;2023-02-28T19:03:40;15.50;;;13.90;;
4676;SDS011;2352;48.180;11.478;2023-02-28T19:06:43;15.07;;;13.57;;
4676;SDS011;2352;48.180;11.478;2023-02-28T19:09:46;16.17;;;13.97;;
4676;SDS011;2352;48.180;11.478;2023-02-28T19:12:50;16.77;;;15.10;;